createdAt,value
2023-04-28T00:02:56.611Z,10.60
2023-04-28T00:06:59.556Z,10.60
2023-04-28T00:11:03.826Z,10.70
2023-04-28T00:15:07.475Z,10.80
2023-04-28T00:19:10.284Z,10.80
2023-04-28T00:23:13.062Z,10.80
2023-04-28T00:27:17.303Z,10.80
2023-04-28T00:31:20.188Z,10.70
2023-04-28T00:35:23.284Z,10.80
2023-04-28T00:39:27.703Z,10.70
2023-04-28T00:43:32.502Z,10.80
2023-04-28T00:47:35.802Z,10.70
2023-04-28T00:51:39.555Z,10.60
2023-04-28T00:55:42.469Z,10.60
2023-04-28T00:59:47.078Z,10.60
2023-04-28T01:03:50.294Z,10.50
2023-04-28T01:07:54.305Z,10.50
2023-04-28T01:11:58.346Z,10.60
2023-04-28T01:16:32.953Z,10.60
2023-04-28T01:20:36.447Z,10.60
2023-04-28T01:24:41.362Z,10.70
2023-04-28T01:28:45.489Z,10.80
2023-04-28T01:32:48.324Z,10.70
2023-04-28T01:36:51.122Z,10.70
2023-04-28T01:40:56.781Z,10.80
2023-04-28T01:44:59.516Z,10.80
2023-04-28T01:49:02.371Z,10.80
2023-04-28T01:53:05.177Z,10.80
2023-04-28T01:57:09.817Z,10.90
2023-04-28T02:01:13.776Z,11.00
2023-04-28T02:05:17.404Z,11.00
2023-04-28T02:09:20.225Z,11.10
2023-04-28T02:13:24.452Z,11.00
2023-04-28T02:17:31.108Z,11.00
2023-04-28T02:21:33.907Z,11.10
2023-04-28T02:25:36.721Z,11.10
2023-04-28T02:29:42.039Z,11.20
2023-04-28T02:33:44.843Z,11.20
2023-04-28T02:37:47.708Z,11.10
2023-04-28T02:41:50.675Z,10.90
2023-04-28T02:45:55.212Z,10.80
2023-04-28T02:49:59.109Z,10.90
2023-04-28T02:54:02.294Z,11.00
2023-04-28T02:58:05.124Z,11.00
2023-04-28T03:02:09.853Z,11.00
2023-04-28T03:06:12.637Z,11.00
2023-04-28T03:10:15.400Z,11.00
2023-04-28T03:14:18.502Z,10.80
2023-04-28T03:18:23.226Z,10.90
2023-04-28T03:22:26.057Z,10.90
2023-04-28T03:26:28.824Z,11.00
2023-04-28T03:30:31.582Z,10.70
2023-04-28T03:34:35.778Z,10.90
2023-04-28T03:38:38.701Z,10.80
2023-04-28T03:42:41.461Z,10.80
2023-04-28T03:46:46.118Z,10.90
2023-04-28T03:50:50.980Z,10.80
2023-04-28T03:54:53.790Z,10.80
2023-04-28T03:58:56.614Z,10.90
2023-04-28T04:02:59.566Z,10.90
2023-04-28T04:07:04.151Z,10.90
2023-04-28T04:11:07.239Z,11.00
2023-04-28T04:15:11.436Z,10.90
2023-04-28T04:19:15.104Z,10.90
2023-04-28T04:23:21.198Z,10.90
2023-04-28T04:27:24.457Z,10.90
2023-04-28T04:31:28.032Z,10.90
2023-04-28T04:35:30.934Z,10.90
2023-04-28T04:39:35.215Z,10.80
2023-04-28T04:43:38.036Z,10.80
2023-04-28T04:47:41.511Z,10.70
2023-04-28T04:51:44.747Z,10.80
2023-04-28T04:55:49.166Z,10.90
2023-04-28T04:59:52.775Z,10.90
2023-04-28T05:03:55.842Z,10.80
2023-04-28T05:07:58.884Z,10.80
2023-04-28T05:12:03.685Z,10.90
2023-04-28T05:16:07.911Z,10.90
2023-04-28T05:20:40.084Z,10.90
2023-04-28T05:24:44.313Z,11.00
2023-04-28T05:28:48.608Z,11.00
2023-04-28T05:32:51.475Z,11.00
2023-04-28T05:36:54.402Z,10.90
2023-04-28T05:41:01.871Z,10.90
2023-04-28T05:45:08.031Z,11.00
2023-04-28T05:49:11.480Z,11.00
2023-04-28T05:53:14.206Z,10.90
2023-04-28T05:57:17.370Z,10.80
2023-04-28T06:01:23.719Z,10.80
2023-04-28T06:05:27.049Z,10.80
2023-04-28T06:09:32.115Z,10.80
2023-04-28T06:13:36.539Z,10.80
2023-04-28T06:17:41.617Z,10.80
2023-04-28T06:21:44.820Z,10.90
2023-04-28T06:25:47.761Z,11.00
2023-04-28T06:29:51.343Z,11.10
2023-04-28T06:33:55.596Z,11.50
2023-04-28T06:37:59.333Z,11.70
2023-04-28T06:42:02.317Z,11.80
2023-04-28T06:46:06.643Z,11.90
2023-04-28T06:50:11.543Z,12.10
2023-04-28T06:54:14.342Z,12.20
2023-04-28T06:58:20.706Z,12.30
2023-04-28T07:02:24.229Z,12.50
2023-04-28T07:06:29.730Z,12.60
2023-04-28T07:10:32.440Z,12.70
2023-04-28T07:14:35.224Z,12.80
2023-04-28T07:18:37.977Z,12.80
2023-04-28T07:22:42.102Z,12.90
2023-04-28T07:26:45.093Z,12.70
2023-04-28T07:30:47.991Z,12.70
2023-04-28T07:34:51.018Z,12.80
2023-04-28T07:38:55.149Z,12.70
2023-04-28T07:42:57.909Z,12.80
2023-04-28T07:47:00.849Z,12.80
2023-04-28T07:51:03.658Z,12.80
2023-04-28T07:55:08.331Z,12.70
2023-04-28T07:59:11.123Z,12.70
2023-04-28T08:03:14.128Z,12.70
2023-04-28T08:07:17.248Z,12.50
2023-04-28T08:11:22.448Z,12.60
2023-04-28T08:15:25.911Z,12.50
2023-04-28T08:19:28.657Z,12.40
2023-04-28T08:23:32.021Z,12.30
2023-04-28T08:27:38.043Z,12.30
2023-04-28T08:31:41.256Z,12.30
2023-04-28T08:35:44.110Z,12.30
2023-04-28T08:39:47.646Z,12.40
2023-04-28T08:43:51.954Z,12.40
2023-04-28T08:47:56.192Z,12.40
2023-04-28T08:52:01.210Z,12.50
2023-04-28T08:56:07.188Z,12.60
2023-04-28T09:00:12.891Z,12.60
2023-04-28T09:04:18.607Z,12.70
2023-04-28T09:08:21.829Z,12.80
2023-04-28T09:12:37.550Z,12.70
2023-04-28T09:16:45.082Z,12.60
2023-04-28T09:20:48.105Z,12.60
2023-04-28T09:24:53.040Z,12.50
2023-04-28T09:29:13.746Z,12.30
2023-04-28T09:33:17.973Z,12.30
2023-04-28T09:37:23.258Z,12.40
2023-04-28T09:41:37.058Z,12.50
2023-04-28T09:45:42.475Z,12.50
2023-04-28T09:49:56.860Z,12.50
2023-04-28T09:54:01.808Z,12.50
2023-04-28T09:58:08.357Z,12.50
2023-04-28T10:02:28.842Z,12.50
2023-04-28T10:06:37.383Z,12.30
2023-04-28T10:10:40.986Z,12.30
2023-04-28T10:14:44.383Z,12.30
2023-04-28T10:18:47.702Z,12.30
2023-04-28T10:23:02.155Z,12.30
2023-04-28T10:27:08.392Z,12.30
2023-04-28T10:31:12.555Z,12.20
2023-04-28T10:35:43.801Z,12.20
2023-04-28T10:40:24.947Z,12.40
2023-04-28T10:44:46.711Z,12.40
2023-04-28T10:48:57.130Z,12.40
2023-04-28T10:53:00.525Z,12.50
2023-04-28T10:57:22.840Z,12.60
2023-04-28T11:01:29.521Z,12.60
2023-04-28T11:05:34.635Z,12.70
2023-04-28T11:09:50.150Z,12.60
2023-04-28T11:13:54.733Z,12.60
2023-04-28T11:18:03.446Z,12.50
2023-04-28T11:22:11.597Z,12.60
2023-04-28T11:26:14.850Z,12.70
2023-04-28T11:30:28.588Z,12.90
2023-04-28T11:34:36.497Z,13.00
2023-04-28T11:38:46.996Z,13.30
2023-04-28T11:42:50.126Z,13.80
2023-04-28T11:46:56.006Z,13.80
2023-04-28T11:51:38.700Z,13.90
2023-04-28T11:55:43.010Z,13.90
2023-04-28T11:59:46.340Z,14.00
2023-04-28T12:03:49.798Z,14.20
2023-04-28T12:07:52.711Z,14.20
2023-04-28T12:12:45.416Z,14.10
2023-04-28T12:16:53.137Z,14.20
2023-04-28T12:20:56.174Z,14.20
2023-04-28T12:25:06.759Z,14.30
2023-04-28T12:29:11.342Z,14.60
2023-04-28T12:33:24.953Z,14.70
2023-04-28T12:37:27.816Z,14.60
2023-04-28T12:41:30.656Z,14.70
2023-04-28T12:45:35.621Z,14.70
2023-04-28T12:49:39.776Z,14.60
2023-04-28T12:53:42.585Z,14.90
2023-04-28T12:57:45.468Z,15.10
2023-04-28T13:01:50.296Z,15.10
2023-04-28T13:05:53.548Z,15.30
2023-04-28T13:09:56.821Z,15.40
2023-04-28T13:13:59.649Z,15.40
2023-04-28T13:18:04.456Z,15.50
2023-04-28T13:22:07.309Z,15.50
2023-04-28T13:26:10.384Z,15.50
2023-04-28T13:30:14.540Z,15.50
2023-04-28T13:34:18.952Z,15.70
2023-04-28T13:38:22.185Z,16.20
2023-04-28T13:42:25.224Z,16.10
2023-04-28T13:46:28.616Z,16.00
2023-04-28T13:50:32.820Z,16.40
2023-04-28T13:54:35.586Z,16.30
2023-04-28T13:58:38.362Z,16.30
2023-04-28T14:02:41.397Z,16.30
2023-04-28T14:06:45.620Z,16.10
2023-04-28T14:10:48.568Z,16.00
2023-04-28T14:14:51.419Z,15.80
2023-04-28T14:18:54.189Z,15.80
2023-04-28T14:22:58.472Z,15.80
2023-04-28T14:27:01.292Z,15.80
2023-04-28T14:31:07.312Z,15.90
2023-04-28T14:35:12.113Z,15.90
2023-04-28T14:39:16.554Z,15.80
2023-04-28T14:43:19.372Z,15.70
2023-04-28T14:47:22.240Z,15.70
2023-04-28T14:51:26.033Z,15.60
2023-04-28T14:55:30.197Z,15.70
2023-04-28T14:59:33.055Z,15.70
2023-04-28T15:03:36.112Z,15.50
2023-04-28T15:07:38.998Z,15.40
2023-04-28T15:11:43.159Z,15.40
2023-04-28T15:20:16.525Z,15.40
2023-04-28T15:24:20.885Z,15.40
2023-04-28T15:28:24.966Z,15.40
2023-04-28T15:32:30.321Z,15.40
2023-04-28T15:36:37.648Z,15.40
2023-04-28T15:40:41.180Z,15.30
2023-04-28T15:44:45.228Z,15.30
2023-04-28T15:48:47.925Z,15.30
2023-04-28T15:52:51.181Z,15.40
2023-04-28T15:56:54.929Z,15.30
2023-04-28T16:00:59.446Z,15.30
2023-04-28T16:05:02.550Z,15.20
2023-04-28T16:09:05.603Z,15.20
2023-04-28T16:13:10.947Z,15.20
2023-04-28T16:17:15.535Z,15.10
2023-04-28T16:21:18.672Z,15.10
2023-04-28T16:25:21.509Z,15.00
2023-04-28T16:29:24.277Z,15.00
2023-04-28T16:33:28.486Z,14.90
2023-04-28T16:37:31.328Z,14.90
2023-04-28T16:41:34.128Z,14.80
2023-04-28T16:45:37.077Z,14.80
2023-04-28T16:49:41.308Z,14.70
2023-04-28T16:53:44.172Z,14.50
2023-04-28T16:57:46.995Z,14.50
2023-04-28T17:01:49.946Z,14.40
2023-04-28T17:05:54.141Z,14.40
2023-04-28T17:09:57.015Z,14.40
2023-04-28T17:14:00.038Z,14.40
2023-04-28T17:18:02.911Z,14.40
2023-04-28T17:22:07.051Z,14.40
2023-04-28T17:26:09.827Z,14.50
2023-04-28T17:30:13.198Z,14.60
2023-04-28T17:34:16.217Z,14.60
2023-04-28T17:38:20.378Z,14.50
2023-04-28T17:42:23.130Z,14.50
2023-04-28T17:46:27.406Z,14.50
2023-04-28T17:50:30.199Z,14.50
2023-04-28T17:54:34.432Z,14.40
2023-04-28T17:58:37.294Z,14.40
2023-04-28T18:02:40.742Z,14.40
2023-04-28T18:06:43.755Z,14.30
2023-04-28T18:10:47.984Z,14.20
2023-04-28T18:14:52.141Z,14.20
2023-04-28T18:18:55.076Z,14.10
2023-04-28T18:22:58.004Z,14.10
2023-04-28T18:27:02.238Z,14.00
2023-04-28T18:31:06.347Z,14.00
2023-04-28T18:35:10.283Z,14.00
2023-04-28T18:39:13.073Z,14.00
2023-04-28T18:43:17.230Z,14.00
2023-04-28T18:47:20.011Z,14.00
2023-04-28T18:51:23.073Z,14.00
2023-04-28T18:55:25.839Z,13.90
2023-04-28T18:59:30.204Z,13.90
2023-04-28T19:03:33.279Z,13.80
2023-04-28T19:07:36.220Z,13.40
2023-04-28T19:11:38.965Z,13.50
2023-04-28T19:15:43.124Z,13.30
2023-04-28T19:19:45.932Z,13.40
2023-04-28T19:23:48.728Z,13.40
2023-04-28T19:27:51.492Z,13.40
2023-04-28T19:31:56.182Z,13.40
2023-04-28T19:36:00.186Z,13.40
2023-04-28T19:40:04.806Z,13.50
2023-04-28T19:44:07.613Z,13.20
2023-04-28T19:48:11.820Z,13.10
2023-04-28T19:52:14.621Z,13.30
2023-04-28T19:56:17.387Z,13.20
2023-04-28T20:00:21.614Z,13.20
2023-04-28T20:04:25.927Z,13.10
2023-04-28T20:08:29.452Z,13.20
2023-04-28T20:12:32.788Z,13.10
2023-04-28T20:16:35.572Z,13.00
2023-04-28T20:20:39.680Z,13.10
2023-04-28T20:24:42.461Z,13.00
2023-04-28T20:28:47.407Z,13.00
2023-04-28T20:32:50.286Z,12.90
2023-04-28T20:36:55.711Z,12.90
2023-04-28T20:40:59.244Z,12.90
2023-04-28T20:45:02.995Z,13.10
2023-04-28T20:49:05.812Z,13.10
2023-04-28T20:53:10.096Z,13.00
2023-04-28T20:57:13.104Z,12.90
2023-04-28T21:01:15.946Z,13.00
2023-04-28T21:05:20.591Z,12.80
2023-04-28T21:09:25.500Z,12.80
2023-04-28T21:13:28.414Z,12.90
2023-04-28T21:17:31.265Z,12.90
2023-04-28T21:21:34.974Z,12.80
2023-04-28T21:25:39.147Z,12.80
2023-04-28T21:29:42.145Z,12.80
2023-04-28T21:33:44.935Z,12.70
2023-04-28T21:37:48.050Z,12.70
2023-04-28T21:41:52.505Z,12.60
2023-04-28T21:45:55.361Z,12.60
2023-04-28T21:49:58.222Z,12.50
2023-04-28T21:54:02.695Z,12.80
2023-04-28T21:58:06.964Z,12.60
2023-04-28T22:02:10.018Z,12.40
2023-04-28T22:06:13.887Z,12.60
2023-04-28T22:10:17.034Z,12.70
2023-04-28T22:14:35.617Z,12.30
2023-04-28T22:18:43.046Z,12.40
2023-04-28T22:22:45.852Z,12.20
2023-04-28T22:26:48.638Z,12.30
2023-04-28T22:30:53.911Z,12.40
2023-04-28T22:34:56.801Z,12.30
2023-04-28T22:38:59.632Z,12.30
2023-04-28T22:43:02.742Z,12.10
2023-04-28T22:47:06.973Z,12.10
2023-04-28T22:51:10.063Z,12.00
2023-04-28T22:55:13.158Z,12.10
2023-04-28T22:59:16.281Z,12.00
2023-04-28T23:03:21.239Z,11.90
2023-04-28T23:07:24.288Z,12.00
2023-04-28T23:11:27.412Z,11.90
2023-04-28T23:15:30.260Z,11.80
2023-04-28T23:19:35.555Z,11.80
2023-04-28T23:23:38.344Z,11.60
2023-04-28T23:27:41.260Z,11.60
2023-04-28T23:32:06.619Z,11.60
2023-04-28T23:36:12.584Z,11.60
2023-04-28T23:40:15.665Z,11.50
2023-04-28T23:44:18.689Z,11.50
2023-04-28T23:48:22.213Z,11.40
2023-04-28T23:52:27.052Z,11.40
2023-04-28T23:56:30.034Z,11.30
